Time;durP1;ratioP1;P1;durP2;ratioP2;P2;SDS_P1;SDS_P2;PMS_P1;PMS_P2;Temp;Humidity;BMP_temperature;BMP_pressure;BME280_temperature;BME280_humidity;BME280_pressure;Samples;Min_cycle;Max_cycle;Signal;HPM_P1;HPM_P2
2022/10/28 00:01:33;;;;;;;39.50;25.65;;;12.50;99.90;;;;;;5114401;28;20023;-73
2022/10/28 00:04:00;;;;;;;45.05;24.15;;;12.40;99.90;;;;;;5115713;28;20031;-73
2022/10/28 00:06:35;;;;;;;36.33;22.95;;;12.40;99.90;;;;;;5115453;28;20026;-73
2022/10/28 00:09:02;;;;;;;33.28;22.60;;;12.50;99.90;;;;;;5115944;28;20111;-72
2022/10/28 00:11:30;;;;;;;39.08;22.95;;;12.40;99.90;;;;;;5115854;28;20028;-73
2022/10/28 00:13:58;;;;;;;34.60;22.42;;;12.40;99.90;;;;;;5115345;28;20024;-73
2022/10/28 00:16:26;;;;;;;38.28;22.15;;;12.40;99.90;;;;;;5115764;28;20023;-73
2022/10/28 00:18:52;;;;;;;37.60;22.02;;;12.40;99.90;;;;;;5115063;28;20020;-73
2022/10/28 00:21:22;;;;;;;39.20;23.17;;;12.40;99.90;;;;;;5115682;27;20398;-71
2022/10/28 00:23:48;;;;;;;46.33;23.20;;;12.40;99.90;;;;;;5115110;28;20027;-72
2022/10/28 00:26:15;;;;;;;42.53;22.77;;;12.40;99.90;;;;;;5115270;28;20023;-71
2022/10/28 00:28:46;;;;;;;38.45;22.67;;;12.40;99.90;;;;;;5115063;28;20016;-72
2022/10/28 00:31:14;;;;;;;39.00;22.85;;;12.50;99.90;;;;;;5115565;28;20115;-71
2022/10/28 00:33:40;;;;;;;31.58;20.85;;;12.40;99.90;;;;;;5114844;27;20087;-72
2022/10/28 00:36:17;;;;;;;36.53;19.83;;;12.40;99.90;;;;;;5115379;28;20464;-72
2022/10/28 00:38:44;;;;;;;36.08;19.90;;;12.40;99.90;;;;;;5115026;28;20064;-71
2022/10/28 00:41:12;;;;;;;32.35;20.60;;;12.40;99.90;;;;;;5115268;28;20075;-72
2022/10/28 00:43:46;;;;;;;28.40;20.33;;;12.40;99.90;;;;;;5114455;28;20070;-72
2022/10/28 00:46:32;;;;;;;36.90;21.38;;;12.40;99.90;;;;;;5115238;28;20464;-71
2022/10/28 00:49:23;;;;;;;33.40;20.83;;;12.40;99.90;;;;;;5114158;28;20399;-72
2022/10/28 00:51:53;;;;;;;40.35;20.60;;;12.40;99.90;;;;;;5114650;28;20115;-73
2022/10/28 00:54:20;;;;;;;27.13;19.58;;;12.40;99.90;;;;;;5115122;28;20031;-73
2022/10/28 00:56:49;;;;;;;35.80;19.52;;;12.40;99.90;;;;;;5114260;28;20464;-73
2022/10/28 00:59:37;;;;;;;31.92;18.80;;;12.40;99.90;;;;;;5114812;28;20499;-73
2022/10/28 01:02:04;;;;;;;25.05;18.35;;;12.40;99.90;;;;;;5114844;28;20038;-73
2022/10/28 01:04:30;;;;;;;30.90;18.50;;;12.30;99.90;;;;;;5114891;28;20457;-73
2022/10/28 01:06:57;;;;;;;29.45;20.13;;;12.40;99.90;;;;;;5114378;28;20052;-73
2022/10/28 01:09:23;;;;;;;29.35;18.90;;;12.30;99.90;;;;;;5114993;28;20488;-74
2022/10/28 01:12:01;;;;;;;26.88;19.20;;;12.30;99.90;;;;;;5114445;28;20051;-73
2022/10/28 01:14:34;;;;;;;28.23;18.98;;;12.20;99.90;;;;;;5114569;28;20087;-73
2022/10/28 01:17:27;;;;;;;28.48;19.38;;;12.30;99.90;;;;;;5113781;28;20031;-73
2022/10/28 01:20:25;;;;;;;25.95;18.52;;;12.30;99.90;;;;;;5114326;28;20106;-73
2022/10/28 01:23:02;;;;;;;30.45;18.23;;;12.30;99.90;;;;;;5110713;28;20455;-72
2022/10/28 01:25:50;;;;;;;28.38;18.50;;;12.30;99.90;;;;;;5114283;28;20030;-73
2022/10/28 01:28:36;;;;;;;31.65;19.33;;;12.30;99.90;;;;;;5114009;28;20024;-73
2022/10/28 01:31:35;;;;;;;26.02;18.25;;;12.30;99.90;;;;;;5113711;28;20028;-73
2022/10/28 01:34:08;;;;;;;24.15;17.23;;;12.30;99.90;;;;;;5105174;28;20054;-73
2022/10/28 01:36:40;;;;;;;23.25;16.58;;;12.30;99.90;;;;;;5114015;28;20020;-73
2022/10/28 01:39:14;;;;;;;26.80;18.30;;;12.30;99.90;;;;;;5114062;28;20030;-73
2022/10/28 01:42:18;;;;;;;29.45;17.83;;;12.30;99.90;;;;;;5112403;28;20024;-75
2022/10/28 01:44:51;;;;;;;26.75;17.75;;;12.30;99.90;;;;;;5113331;28;20031;-72
2022/10/28 01:47:39;;;;;;;24.50;17.45;;;12.20;99.90;;;;;;5113988;28;20077;-72
2022/10/28 01:50:11;;;;;;;22.98;17.35;;;12.20;99.90;;;;;;5075689;28;20038;-73
2022/10/28 01:52:39;;;;;;;26.02;17.75;;;12.20;99.90;;;;;;5112625;28;20360;-72
2022/10/28 01:55:15;;;;;;;27.92;18.10;;;12.20;99.90;;;;;;5113281;28;20046;-72
2022/10/28 01:57:42;;;;;;;27.63;17.92;;;12.20;99.90;;;;;;5113469;28;20417;-72
2022/10/28 02:00:08;;;;;;;28.25;16.85;;;12.20;99.90;;;;;;5113434;28;20460;-72
2022/10/28 02:02:37;;;;;;;24.73;17.50;;;12.20;99.90;;;;;;5113518;28;20032;-72
2022/10/28 02:05:44;;;;;;;24.73;17.80;;;12.20;99.90;;;;;;5113353;28;20138;-71
2022/10/28 02:08:18;;;;;;;29.08;18.25;;;12.10;99.90;;;;;;5113726;28;20039;-72
2022/10/28 02:10:59;;;;;;;25.85;18.88;;;12.20;99.90;;;;;;5113216;28;20061;-73
2022/10/28 02:14:08;;;;;;;23.67;17.83;;;12.10;99.90;;;;;;5113590;28;20035;-72
2022/10/28 02:16:53;;;;;;;26.83;18.50;;;12.20;99.90;;;;;;5030583;28;20116;-72
2022/10/28 02:19:30;;;;;;;30.52;18.83;;;12.20;99.90;;;;;;5106701;28;20039;-73
2022/10/28 02:21:56;;;;;;;25.13;17.58;;;12.20;99.90;;;;;;5113129;28;20034;-72
2022/10/28 02:24:29;;;;;;;28.10;18.33;;;12.20;99.90;;;;;;5113083;28;20024;-72
2022/10/28 02:27:06;;;;;;;27.13;18.23;;;12.20;99.90;;;;;;5113044;28;20082;-71
2022/10/28 02:29:43;;;;;;;26.88;18.77;;;12.20;99.90;;;;;;5113442;28;20447;-72
2022/10/28 02:32:15;;;;;;;25.58;17.67;;;12.20;99.90;;;;;;5113392;28;20032;-72
2022/10/28 02:34:45;;;;;;;27.92;19.63;;;12.20;99.90;;;;;;5113274;28;20056;-71
2022/10/28 02:37:18;;;;;;;27.08;17.73;;;12.20;99.90;;;;;;5113366;28;20483;-72
2022/10/28 02:39:51;;;;;;;24.48;18.02;;;12.30;99.90;;;;;;5113366;28;20024;-72
2022/10/28 02:42:25;;;;;;;26.15;18.25;;;12.30;99.90;;;;;;5113648;28;20031;-73
2022/10/28 02:44:56;;;;;;;26.55;18.60;;;12.30;99.90;;;;;;5112627;28;20036;-72
2022/10/28 02:47:26;;;;;;;26.58;18.25;;;12.30;99.90;;;;;;5113047;28;20027;-71
2022/10/28 02:49:56;;;;;;;25.27;18.25;;;12.30;99.90;;;;;;5113073;28;20032;-72
2022/10/28 02:52:25;;;;;;;25.48;17.85;;;12.20;99.90;;;;;;5113184;28;20107;-73
2022/10/28 02:54:56;;;;;;;26.98;18.23;;;12.30;99.90;;;;;;5112363;28;20028;-73
2022/10/28 02:57:25;;;;;;;29.23;18.95;;;12.20;99.90;;;;;;5113024;28;20106;-73
2022/10/28 02:59:59;;;;;;;28.38;18.73;;;12.20;99.90;;;;;;5112709;28;20027;-72
2022/10/28 03:02:26;;;;;;;28.33;18.08;;;12.30;99.90;;;;;;5113055;28;20032;-72
2022/10/28 03:04:52;;;;;;;26.65;18.20;;;12.20;99.90;;;;;;5112597;28;20426;-73
2022/10/28 03:07:18;;;;;;;27.63;18.23;;;12.20;99.90;;;;;;5112915;28;20024;-72
2022/10/28 03:09:44;;;;;;;23.73;17.55;;;12.30;99.90;;;;;;5112911;28;20020;-72
2022/10/28 03:12:10;;;;;;;26.40;18.38;;;12.20;99.90;;;;;;5112451;28;20023;-72
2022/10/28 03:14:35;;;;;;;28.75;18.63;;;12.20;99.90;;;;;;5112299;28;20463;-72
2022/10/28 03:17:01;;;;;;;30.08;18.13;;;12.20;99.90;;;;;;5112543;28;20020;-72
2022/10/28 03:19:27;;;;;;;29.73;19.05;;;12.20;99.90;;;;;;5113071;28;20024;-72
2022/10/28 03:21:52;;;;;;;27.88;17.63;;;12.20;99.90;;;;;;5112231;28;20032;-72
2022/10/28 03:24:18;;;;;;;27.17;18.95;;;12.30;99.90;;;;;;5112433;28;20111;-72
2022/10/28 03:26:44;;;;;;;27.95;17.48;;;12.20;99.90;;;;;;5112771;28;20047;-72
2022/10/28 03:29:09;;;;;;;26.95;18.42;;;12.30;99.90;;;;;;5112290;28;20447;-72
2022/10/28 03:31:35;;;;;;;27.58;18.95;;;12.30;99.90;;;;;;5112742;28;20019;-72
2022/10/28 03:34:00;;;;;;;24.88;16.20;;;12.30;99.90;;;;;;5112287;28;20054;-72
2022/10/28 03:36:26;;;;;;;26.02;16.83;;;12.30;99.90;;;;;;5112426;28;20020;-72
2022/10/28 03:38:52;;;;;;;23.50;16.80;;;12.30;99.90;;;;;;5112581;28;20023;-72
2022/10/28 03:41:17;;;;;;;24.52;15.65;;;12.30;99.90;;;;;;5114339;28;20030;-72
2022/10/28 03:43:43;;;;;;;23.23;15.88;;;12.30;99.90;;;;;;5116543;28;20034;-72
2022/10/28 03:46:09;;;;;;;21.95;14.85;;;12.30;99.90;;;;;;5115220;28;20016;-72
2022/10/28 03:48:34;;;;;;;24.50;16.08;;;12.30;99.90;;;;;;5116719;28;20532;-72
2022/10/28 03:51:00;;;;;;;24.50;16.85;;;12.30;99.90;;;;;;5115976;28;20098;-72
2022/10/28 03:53:26;;;;;;;25.92;17.58;;;12.30;99.90;;;;;;5115929;28;20027;-72
2022/10/28 03:55:56;;;;;;;26.55;18.20;;;12.30;99.90;;;;;;5115598;28;20027;-75
2022/10/28 03:58:23;;;;;;;27.42;18.48;;;12.30;99.90;;;;;;5116111;28;20023;-72
2022/10/28 04:00:52;;;;;;;24.48;15.88;;;12.30;99.90;;;;;;5115813;28;20418;-72
2022/10/28 04:03:20;;;;;;;28.92;18.70;;;12.30;99.90;;;;;;5116192;28;20038;-73
2022/10/28 04:05:48;;;;;;;24.77;16.67;;;12.30;99.90;;;;;;5115977;28;20066;-73
2022/10/28 04:08:18;;;;;;;25.38;16.98;;;12.30;99.90;;;;;;5115284;27;20479;-73
2022/10/28 04:10:44;;;;;;;25.20;17.23;;;12.30;99.90;;;;;;5115947;28;20024;-73
2022/10/28 04:13:10;;;;;;;24.77;16.85;;;12.30;99.90;;;;;;5115624;28;20428;-73
2022/10/28 04:15:35;;;;;;;26.38;17.38;;;12.30;99.90;;;;;;5115857;28;20020;-73
2022/10/28 04:18:02;;;;;;;24.65;17.02;;;12.30;99.90;;;;;;5115243;28;20356;-73
2022/10/28 04:20:28;;;;;;;25.52;17.38;;;12.30;99.90;;;;;;5115854;28;20028;-73
2022/10/28 04:22:54;;;;;;;28.27;16.88;;;12.30;99.90;;;;;;5113956;28;20031;-78
2022/10/28 04:25:24;;;;;;;26.75;17.95;;;12.30;99.90;;;;;;5115491;28;20031;-74
2022/10/28 04:27:50;;;;;;;24.33;16.80;;;12.30;99.90;;;;;;5115885;28;20074;-73
2022/10/28 04:30:16;;;;;;;24.27;16.63;;;12.30;99.90;;;;;;5114779;28;20460;-73
2022/10/28 04:32:43;;;;;;;27.25;16.77;;;12.30;99.90;;;;;;5115218;28;20027;-73
2022/10/28 04:35:10;;;;;;;25.52;17.08;;;12.30;99.90;;;;;;5115074;28;20472;-73
2022/10/28 04:37:36;;;;;;;24.40;17.50;;;12.30;99.90;;;;;;5115502;28;20524;-73
2022/10/28 04:40:02;;;;;;;28.00;17.17;;;12.30;99.90;;;;;;5114671;28;20103;-73
2022/10/28 04:42:28;;;;;;;21.98;15.70;;;12.30;99.90;;;;;;5115166;28;20054;-73
2022/10/28 04:44:53;;;;;;;23.98;16.48;;;12.30;99.90;;;;;;5115311;28;20098;-73
2022/10/28 04:47:19;;;;;;;27.77;16.73;;;12.20;99.90;;;;;;5120646;27;20102;-73
2022/10/28 04:49:45;;;;;;;23.77;15.80;;;12.20;99.90;;;;;;5135761;27;20023;-73
2022/10/28 04:52:11;;;;;;;21.88;15.77;;;12.30;99.90;;;;;;5135251;27;20035;-73
2022/10/28 04:54:37;;;;;;;21.10;14.73;;;12.30;99.90;;;;;;5135522;27;20135;-72
2022/10/28 04:57:03;;;;;;;27.65;16.15;;;12.20;99.90;;;;;;5135240;27;20110;-73
2022/10/28 04:59:28;;;;;;;22.02;15.00;;;12.20;99.90;;;;;;5135913;27;20023;-73
2022/10/28 05:01:54;;;;;;;22.40;13.98;;;12.20;99.90;;;;;;5135161;27;20061;-73
2022/10/28 05:04:20;;;;;;;21.27;14.43;;;12.20;99.90;;;;;;5134862;27;20404;-73
2022/10/28 05:06:45;;;;;;;19.88;13.98;;;12.20;99.90;;;;;;5134925;27;20475;-74
2022/10/28 05:09:11;;;;;;;23.15;14.88;;;12.20;99.90;;;;;;5134811;27;20046;-73
2022/10/28 05:11:37;;;;;;;20.90;13.88;;;12.20;99.90;;;;;;5135137;27;20356;-73
2022/10/28 05:14:03;;;;;;;17.63;12.75;;;12.20;99.90;;;;;;5133351;27;20042;-73
2022/10/28 05:16:28;;;;;;;19.42;13.65;;;12.20;99.90;;;;;;5135107;27;20019;-72
2022/10/28 05:18:54;;;;;;;18.58;13.77;;;12.20;99.90;;;;;;5134792;27;20030;-73
2022/10/28 05:21:20;;;;;;;19.67;13.55;;;12.20;99.90;;;;;;5119760;27;20034;-73
2022/10/28 05:23:46;;;;;;;23.42;14.75;;;12.20;99.90;;;;;;5113470;28;20046;-73
2022/10/28 05:26:12;;;;;;;20.20;13.80;;;12.20;99.90;;;;;;5113651;28;20444;-72
2022/10/28 05:28:37;;;;;;;20.55;14.25;;;12.20;99.90;;;;;;5113963;28;20016;-73
2022/10/28 05:31:03;;;;;;;23.17;15.00;;;12.20;99.90;;;;;;5113478;28;20092;-74
2022/10/28 05:33:29;;;;;;;23.45;15.68;;;12.20;99.90;;;;;;5111930;28;20039;-73
2022/10/28 05:35:54;;;;;;;26.13;16.42;;;12.20;99.90;;;;;;5114064;28;20032;-73
2022/10/28 05:38:20;;;;;;;22.75;15.45;;;12.20;99.90;;;;;;5113390;28;20024;-73
2022/10/28 05:40:46;;;;;;;24.52;16.17;;;12.20;99.90;;;;;;5114181;28;20024;-73
2022/10/28 05:43:11;;;;;;;23.92;15.38;;;12.20;99.90;;;;;;5113459;28;20023;-72
2022/10/28 05:45:37;;;;;;;26.77;16.23;;;12.20;99.90;;;;;;5113158;28;20023;-72
2022/10/28 05:48:03;;;;;;;22.88;15.90;;;12.20;99.90;;;;;;5113538;28;20078;-73
2022/10/28 05:50:28;;;;;;;25.05;16.60;;;12.20;99.90;;;;;;5113471;28;20027;-72
2022/10/28 05:52:56;;;;;;;21.15;15.20;;;12.20;99.90;;;;;;5113919;28;20031;-72
2022/10/28 05:55:24;;;;;;;22.20;14.88;;;12.20;99.90;;;;;;5113792;28;20035;-73
2022/10/28 05:57:51;;;;;;;22.33;15.20;;;12.20;99.90;;;;;;5113806;28;20020;-73
2022/10/28 06:00:20;;;;;;;23.58;15.85;;;12.20;99.90;;;;;;5113354;28;20023;-73
2022/10/28 06:02:46;;;;;;;23.33;14.75;;;12.20;99.90;;;;;;5113720;28;20027;-73
2022/10/28 06:05:12;;;;;;;23.23;15.13;;;12.20;99.90;;;;;;5112846;28;20080;-73
2022/10/28 06:07:38;;;;;;;23.15;14.65;;;12.20;99.90;;;;;;5113302;28;20031;-73
2022/10/28 06:10:06;;;;;;;21.90;14.75;;;12.20;99.90;;;;;;5113224;28;20031;-72
2022/10/28 06:12:32;;;;;;;20.50;14.85;;;12.30;99.90;;;;;;5113321;28;20031;-72
2022/10/28 06:14:57;;;;;;;25.60;15.98;;;12.20;99.90;;;;;;5113389;28;20433;-72
2022/10/28 06:17:23;;;;;;;22.90;15.15;;;12.30;99.90;;;;;;5112808;28;20087;-72
2022/10/28 06:19:49;;;;;;;21.83;13.90;;;12.30;99.90;;;;;;5113826;28;20041;-72
2022/10/28 06:22:14;;;;;;;21.75;14.68;;;12.20;99.90;;;;;;5112775;28;20541;-72
2022/10/28 06:24:40;;;;;;;23.27;16.13;;;12.20;99.90;;;;;;5113447;28;20027;-73
2022/10/28 06:27:06;;;;;;;22.17;14.55;;;12.30;99.90;;;;;;5112718;28;20032;-73
2022/10/28 06:29:32;;;;;;;22.83;14.90;;;12.30;99.90;;;;;;5113280;28;20032;-73
2022/10/28 06:31:58;;;;;;;22.80;15.07;;;12.30;99.90;;;;;;5113458;28;20031;-73
2022/10/28 06:34:24;;;;;;;23.85;14.63;;;12.30;99.90;;;;;;5112913;28;20059;-73
2022/10/28 06:36:49;;;;;;;21.73;14.98;;;12.30;99.90;;;;;;5113249;28;20484;-73
2022/10/28 06:39:15;;;;;;;21.10;14.63;;;12.30;99.90;;;;;;5112575;28;20035;-73
2022/10/28 06:41:41;;;;;;;25.33;15.73;;;12.40;99.90;;;;;;5113531;28;20035;-73
2022/10/28 06:44:07;;;;;;;26.60;14.73;;;12.40;99.90;;;;;;5111569;28;20023;-73
2022/10/28 06:46:33;;;;;;;21.38;14.52;;;12.40;99.90;;;;;;5112880;28;20032;-73
2022/10/28 06:49:01;;;;;;;22.40;13.77;;;12.30;99.90;;;;;;5112534;28;20379;-74
2022/10/28 06:51:27;;;;;;;22.80;15.13;;;12.30;99.90;;;;;;5112273;28;20080;-74
2022/10/28 06:53:53;;;;;;;22.40;14.68;;;12.40;99.90;;;;;;5112548;28;20115;-73
2022/10/28 06:56:19;;;;;;;22.08;14.30;;;12.40;99.90;;;;;;5112368;28;20048;-73
2022/10/28 06:58:49;;;;;;;20.02;13.90;;;12.40;99.90;;;;;;5113012;28;20357;-73
2022/10/28 07:01:15;;;;;;;22.02;14.48;;;12.40;99.90;;;;;;5112292;28;20371;-72
2022/10/28 07:03:41;;;;;;;24.65;14.95;;;12.40;99.90;;;;;;5112907;28;20073;-73
2022/10/28 07:06:06;;;;;;;27.20;14.80;;;12.40;99.90;;;;;;5112889;28;20015;-73
2022/10/28 07:08:32;;;;;;;22.70;13.75;;;12.40;99.90;;;;;;5112950;28;20027;-73
2022/10/28 07:10:59;;;;;;;21.52;13.93;;;12.50;99.90;;;;;;5113124;28;20031;-73
2022/10/28 07:13:25;;;;;;;21.45;14.45;;;12.50;99.90;;;;;;5112753;28;20126;-71
2022/10/28 07:15:56;;;;;;;21.33;14.88;;;12.50;99.90;;;;;;5114039;28;20111;-72
2022/10/28 07:18:22;;;;;;;21.92;14.30;;;12.40;99.90;;;;;;5116221;28;20050;-73
2022/10/28 07:20:48;;;;;;;23.23;14.30;;;12.40;99.90;;;;;;5116990;28;20032;-72
2022/10/28 07:23:14;;;;;;;19.40;13.65;;;12.40;99.90;;;;;;5116633;28;20045;-73
2022/10/28 07:25:40;;;;;;;19.58;13.82;;;12.40;99.90;;;;;;5116545;28;20456;-73
2022/10/28 07:28:06;;;;;;;22.42;14.68;;;12.40;99.90;;;;;;5115631;28;20035;-73
2022/10/28 07:30:32;;;;;;;22.48;14.70;;;12.40;99.90;;;;;;5115100;28;20023;-74
2022/10/28 07:32:59;;;;;;;19.42;14.20;;;12.40;99.90;;;;;;5115191;28;20051;-73
2022/10/28 07:35:29;;;;;;;25.55;15.05;;;12.40;99.90;;;;;;5115518;28;20039;-73
2022/10/28 07:37:56;;;;;;;22.50;14.98;;;12.50;99.90;;;;;;5116117;28;20035;-72
2022/10/28 07:40:22;;;;;;;22.63;13.60;;;12.40;99.90;;;;;;5115206;28;20026;-73
2022/10/28 07:42:48;;;;;;;19.20;13.18;;;12.40;99.90;;;;;;5114548;28;20024;-73
2022/10/28 07:45:15;;;;;;;15.93;12.02;;;12.40;99.90;;;;;;5116027;28;20036;-73
2022/10/28 07:47:40;;;;;;;16.48;11.57;;;12.40;99.90;;;;;;5115183;28;20049;-73
2022/10/28 07:50:07;;;;;;;16.98;11.48;;;12.40;99.90;;;;;;5114957;28;20024;-73
2022/10/28 07:52:36;;;;;;;16.70;11.43;;;12.40;99.90;;;;;;5115452;28;20042;-72
2022/10/28 07:55:06;;;;;;;15.93;11.65;;;12.40;99.90;;;;;;5116134;28;20059;-73
2022/10/28 07:57:33;;;;;;;17.27;10.85;;;12.40;99.90;;;;;;5115793;28;20528;-74
2022/10/28 07:59:59;;;;;;;16.17;11.05;;;12.40;99.90;;;;;;5116064;28;20016;-73
2022/10/28 08:02:24;;;;;;;16.52;11.40;;;12.40;99.90;;;;;;5115675;28;20419;-72
2022/10/28 08:04:51;;;;;;;17.27;11.20;;;12.40;99.90;;;;;;5115880;28;20483;-73
2022/10/28 08:07:17;;;;;;;15.50;11.63;;;12.40;99.90;;;;;;5115684;28;20521;-74
2022/10/28 08:09:43;;;;;;;17.92;11.80;;;12.40;99.90;;;;;;5115670;28;20031;-74
2022/10/28 08:12:12;;;;;;;16.83;12.05;;;12.40;99.90;;;;;;5116265;28;20032;-74
2022/10/28 08:14:38;;;;;;;16.33;11.60;;;12.40;99.90;;;;;;5115491;28;20088;-73
2022/10/28 08:17:04;;;;;;;17.42;12.05;;;12.40;99.90;;;;;;5115549;28;20027;-73
2022/10/28 08:19:29;;;;;;;17.80;12.38;;;12.40;99.90;;;;;;5115104;28;20099;-73
2022/10/28 08:21:55;;;;;;;18.63;12.13;;;12.50;99.90;;;;;;5116073;28;20027;-73
2022/10/28 08:24:21;;;;;;;16.70;11.93;;;12.50;99.90;;;;;;5114982;28;20069;-74
2022/10/28 08:26:46;;;;;;;19.67;12.48;;;12.50;99.90;;;;;;5114904;28;20024;-73
2022/10/28 08:29:12;;;;;;;19.38;12.68;;;12.50;99.90;;;;;;5115281;28;20444;-73
2022/10/28 08:31:38;;;;;;;15.35;11.80;;;12.50;99.90;;;;;;5113885;28;20035;-73
2022/10/28 08:34:05;;;;;;;16.42;11.65;;;12.50;99.90;;;;;;5115638;28;20055;-73
2022/10/28 08:36:31;;;;;;;15.65;10.75;;;12.50;99.90;;;;;;5114963;27;20042;-71
2022/10/28 08:39:01;;;;;;;15.48;10.60;;;12.60;99.90;;;;;;5115263;28;20027;-73
2022/10/28 08:41:45;;;;;;;22.08;13.60;;;12.60;99.90;;;;;;5114865;28;20030;-72
2022/10/28 08:44:29;;;;;;;15.77;11.30;;;12.60;99.90;;;;;;5115355;28;20039;-73
2022/10/28 08:47:25;;;;;;;15.52;10.93;;;12.60;99.90;;;;;;5115226;28;20337;-74
2022/10/28 08:49:56;;;;;;;16.00;12.35;;;12.60;99.90;;;;;;5114884;28;20467;-73
2022/10/28 08:52:31;;;;;;;17.02;12.07;;;12.60;99.90;;;;;;5114573;27;20032;-73
2022/10/28 08:55:26;;;;;;;18.65;13.27;;;12.60;99.90;;;;;;5115099;28;20082;-73
2022/10/28 08:58:03;;;;;;;18.30;12.60;;;12.60;99.90;;;;;;5105439;28;20122;-73
2022/10/28 09:00:32;;;;;;;18.38;12.10;;;12.60;99.90;;;;;;5114627;28;20463;-73
2022/10/28 09:03:11;;;;;;;17.20;12.82;;;12.70;99.90;;;;;;5113813;28;20051;-73
2022/10/28 09:05:39;;;;;;;15.70;11.85;;;12.60;99.90;;;;;;5114410;28;20073;-73
2022/10/28 09:08:08;;;;;;;19.08;12.98;;;12.60;99.90;;;;;;5114865;28;20086;-73
2022/10/28 09:11:01;;;;;;;20.63;13.40;;;12.60;99.90;;;;;;5114233;28;20371;-73
2022/10/28 09:13:38;;;;;;;18.98;12.63;;;12.60;99.90;;;;;;5114265;28;20124;-72
2022/10/28 09:16:19;;;;;;;17.20;11.93;;;12.70;99.90;;;;;;5114250;28;20374;-73
2022/10/28 09:18:52;;;;;;;20.75;12.93;;;12.70;99.90;;;;;;5114454;28;20035;-73
2022/10/28 09:21:42;;;;;;;16.65;11.95;;;12.70;99.90;;;;;;5113190;28;20027;-73
2022/10/28 09:24:38;;;;;;;17.17;12.07;;;12.70;99.90;;;;;;5114101;28;20027;-73
2022/10/28 09:27:34;;;;;;;20.58;13.68;;;12.80;99.90;;;;;;5114483;28;20032;-73
2022/10/28 09:30:36;;;;;;;20.58;12.77;;;12.80;99.90;;;;;;5093087;28;20420;-73
2022/10/28 09:33:07;;;;;;;17.45;12.75;;;12.80;99.90;;;;;;5093619;28;20048;-73
2022/10/28 09:35:40;;;;;;;17.38;12.75;;;12.80;99.90;;;;;;5093368;28;20032;-73
2022/10/28 09:38:19;;;;;;;21.05;13.63;;;12.80;99.90;;;;;;5093422;28;20028;-72
2022/10/28 09:40:55;;;;;;;20.25;12.73;;;12.80;99.90;;;;;;5093093;28;20020;-72
2022/10/28 09:43:34;;;;;;;15.50;12.00;;;12.80;99.90;;;;;;5093216;28;20531;-76
2022/10/28 09:46:21;;;;;;;21.60;11.85;;;12.80;99.90;;;;;;5105180;28;20081;-72
2022/10/28 09:48:50;;;;;;;16.70;11.40;;;12.80;99.90;;;;;;5113657;27;20481;-72
2022/10/28 09:51:57;;;;;;;16.15;12.27;;;12.80;99.90;;;;;;5113894;27;20024;-72
2022/10/28 09:54:38;;;;;;;15.80;11.30;;;12.90;99.90;;;;;;5113343;28;20479;-73
2022/10/28 09:57:04;;;;;;;16.58;12.82;;;12.90;99.90;;;;;;5113716;28;20032;-73
2022/10/28 09:59:30;;;;;;;15.70;11.55;;;12.80;99.90;;;;;;5113066;28;20019;-73
2022/10/28 10:01:56;;;;;;;16.42;12.40;;;12.80;99.90;;;;;;5113793;28;20016;-72
2022/10/28 10:04:24;;;;;;;17.17;12.80;;;12.80;99.90;;;;;;5113689;28;20023;-73
2022/10/28 10:07:04;;;;;;;18.00;12.60;;;12.80;99.90;;;;;;5112453;28;20077;-73
2022/10/28 10:09:31;;;;;;;17.60;13.05;;;12.90;99.90;;;;;;5113042;28;20460;-74
2022/10/28 10:12:08;;;;;;;17.25;12.65;;;12.90;99.90;;;;;;5113626;28;20075;-72
2022/10/28 10:14:47;;;;;;;16.27;12.05;;;12.90;99.90;;;;;;5112879;28;20059;-73
2022/10/28 10:17:21;;;;;;;17.00;11.73;;;12.90;99.90;;;;;;5112254;28;20526;-72
2022/10/28 10:20:01;;;;;;;17.00;12.57;;;12.90;99.90;;;;;;5113182;28;20376;-73
2022/10/28 10:22:36;;;;;;;16.63;12.15;;;13.00;99.90;;;;;;5113064;28;20046;-74
2022/10/28 10:25:20;;;;;;;15.27;11.48;;;13.00;99.90;;;;;;5113570;28;20023;-74
2022/10/28 10:28:04;;;;;;;15.07;11.30;;;13.00;99.90;;;;;;5112739;28;20425;-72
2022/10/28 10:30:33;;;;;;;16.67;11.52;;;13.00;99.90;;;;;;5113001;28;20444;-73
2022/10/28 10:33:00;;;;;;;16.13;12.05;;;13.00;99.90;;;;;;5113263;28;20039;-73
2022/10/28 10:35:28;;;;;;;17.38;11.85;;;13.00;99.90;;;;;;5112539;28;20487;-74
2022/10/28 10:37:57;;;;;;;17.75;11.93;;;13.00;99.90;;;;;;5113079;28;20484;-73
2022/10/28 10:40:35;;;;;;;15.57;11.88;;;13.00;99.90;;;;;;5113271;28;20024;-73
2022/10/28 10:43:16;;;;;;;15.90;11.63;;;13.00;99.90;;;;;;5112800;28;20032;-73
2022/10/28 10:46:09;;;;;;;14.13;10.70;;;13.10;99.90;;;;;;5112520;28;20448;-72
2022/10/28 10:48:35;;;;;;;17.35;12.57;;;13.10;99.90;;;;;;5112484;28;20467;-72
2022/10/28 10:51:24;;;;;;;17.50;12.32;;;13.10;99.90;;;;;;5114817;28;20031;-72
2022/10/28 10:53:54;;;;;;;18.48;12.02;;;13.10;99.90;;;;;;5116572;28;20391;-74
2022/10/28 10:56:25;;;;;;;16.60;12.35;;;13.10;99.90;;;;;;5117292;28;20098;-73
2022/10/28 10:58:53;;;;;;;16.58;13.10;;;13.10;99.90;;;;;;5116842;28;20020;-73
2022/10/28 11:01:23;;;;;;;17.67;13.02;;;13.10;99.90;;;;;;5117041;28;20102;-73
2022/10/28 11:03:56;;;;;;;16.27;11.77;;;13.10;99.90;;;;;;5116812;28;20138;-74
2022/10/28 11:06:55;;;;;;;15.43;11.38;;;13.20;99.90;;;;;;5116998;28;20019;-74
2022/10/28 11:09:32;;;;;;;16.00;10.48;;;13.20;99.90;;;;;;5072600;28;20036;-72
2022/10/28 11:11:58;;;;;;;15.07;11.82;;;13.20;99.90;;;;;;5117412;28;20106;-72
2022/10/28 11:14:29;;;;;;;13.13;10.10;;;13.20;99.90;;;;;;5116476;28;20084;-73
2022/10/28 11:17:00;;;;;;;16.00;11.50;;;13.20;99.90;;;;;;5117120;28;20032;-72
2022/10/28 11:19:30;;;;;;;15.55;11.10;;;13.20;99.90;;;;;;5116892;28;20027;-73
2022/10/28 11:22:11;;;;;;;18.43;12.27;;;13.30;99.90;;;;;;5117144;28;20107;-72
2022/10/28 11:25:18;;;;;;;14.80;10.97;;;13.30;99.90;;;;;;5116162;28;20111;-74
2022/10/28 11:28:13;;;;;;;18.40;11.85;;;13.30;99.90;;;;;;5116505;27;20028;-73
2022/10/28 11:31:06;;;;;;;18.10;13.07;;;13.30;99.90;;;;;;5043694;28;20053;-73
2022/10/28 11:33:58;;;;;;;19.83;14.65;;;13.30;99.90;;;;;;5115685;28;20051;-74
2022/10/28 11:36:32;;;;;;;21.10;14.68;;;13.30;99.90;;;;;;5115093;28;20108;-73
2022/10/28 11:39:17;;;;;;;22.75;13.52;;;13.30;99.90;;;;;;5116719;28;20478;-73
2022/10/28 11:41:59;;;;;;;17.95;13.45;;;13.30;99.90;;;;;;5115834;28;20468;-72
2022/10/28 11:44:45;;;;;;;18.55;12.98;;;13.40;99.90;;;;;;5116323;28;20387;-73
2022/10/28 11:47:14;;;;;;;20.85;14.82;;;13.40;99.90;;;;;;5116037;28;20020;-72
2022/10/28 11:50:04;;;;;;;18.85;13.38;;;13.40;99.90;;;;;;5115604;28;20400;-73
2022/10/28 11:52:47;;;;;;;20.20;13.88;;;13.40;99.90;;;;;;5116333;28;20023;-73
2022/10/28 11:55:38;;;;;;;19.27;13.88;;;13.40;99.90;;;;;;5116200;28;20040;-73
2022/10/28 11:58:31;;;;;;;18.80;13.43;;;13.40;99.90;;;;;;5116261;28;20028;-73
2022/10/28 12:01:11;;;;;;;19.55;14.30;;;13.40;99.90;;;;;;5114694;28;20035;-73
2022/10/28 12:03:42;;;;;;;18.25;12.85;;;13.40;99.90;;;;;;5115319;28;20081;-73
2022/10/28 12:06:50;;;;;;;18.30;13.45;;;13.40;99.90;;;;;;5115699;28;20380;-73
2022/10/28 12:09:24;;;;;;;17.60;12.88;;;13.40;99.90;;;;;;5115963;28;20030;-73
2022/10/28 12:12:19;;;;;;;18.35;13.45;;;13.40;99.90;;;;;;5115227;28;20357;-73
2022/10/28 12:15:13;;;;;;;20.52;14.60;;;13.40;99.90;;;;;;5115542;28;20035;-73
2022/10/28 12:17:50;;;;;;;22.77;15.20;;;13.30;99.90;;;;;;5115069;28;20027;-73
2022/10/28 12:20:25;;;;;;;19.55;15.27;;;13.40;99.90;;;;;;5115468;28;20020;-72
2022/10/28 12:22:54;;;;;;;22.20;16.35;;;13.40;99.90;;;;;;5115347;27;20034;-73
2022/10/28 12:25:27;;;;;;;28.33;18.00;;;13.40;99.90;;;;;;5115335;28;20535;-73
2022/10/28 12:28:21;;;;;;;27.25;20.02;;;13.50;99.90;;;;;;5115279;28;20894;-72
2022/10/28 12:30:49;;;;;;;29.10;21.38;;;13.50;99.90;;;;;;5107233;28;20063;-72
2022/10/28 12:33:28;;;;;;;27.20;19.00;;;13.50;99.90;;;;;;5113706;28;20090;-73
2022/10/28 12:36:19;;;;;;;29.08;20.23;;;13.40;99.90;;;;;;5114786;28;20293;-73
2022/10/28 12:39:03;;;;;;;;;;;13.50;99.90;;;;;;5115418;28;20035;-74
2022/10/28 12:42:01;;;;;;;30.98;21.38;;;13.50;99.90;;;;;;5114929;28;19904;-73
2022/10/28 12:44:28;;;;;;;29.23;21.77;;;13.50;99.90;;;;;;5109976;28;20392;-73
2022/10/28 12:47:03;;;;;;;37.97;22.98;;;13.50;99.90;;;;;;5114766;28;20357;-73
2022/10/28 12:49:47;;;;;;;38.13;25.25;;;13.40;99.90;;;;;;5115040;28;20059;-72
2022/10/28 12:52:31;;;;;;;27.25;18.13;;;13.40;99.90;;;;;;5115447;28;20020;-73
2022/10/28 12:55:07;;;;;;;24.17;18.73;;;13.40;99.90;;;;;;5114381;28;20118;-73